createdAt,value
2017-05-04T00:01:27.162Z,99.90
2017-05-04T00:03:55.699Z,99.90
2017-05-04T00:06:24.288Z,99.90
2017-05-04T00:08:52.816Z,99.90
2017-05-04T00:11:21.355Z,99.90
2017-05-04T00:13:49.971Z,99.90
2017-05-04T00:16:18.497Z,99.90
2017-05-04T00:18:47.023Z,99.90
2017-05-04T00:21:15.600Z,99.90
2017-05-04T00:23:44.135Z,99.90
2017-05-04T00:26:12.652Z,99.90
2017-05-04T00:28:41.223Z,99.90
2017-05-04T00:31:09.745Z,99.90
2017-05-04T00:33:38.281Z,99.90
2017-05-04T00:36:06.844Z,99.90
2017-05-04T00:38:35.372Z,99.90
2017-05-04T00:41:03.890Z,99.90
2017-05-04T00:43:32.453Z,99.90
2017-05-04T00:46:00.978Z,99.90
2017-05-04T00:48:29.516Z,99.90
2017-05-04T00:50:58.093Z,99.90
2017-05-04T00:53:26.617Z,99.90
2017-05-04T00:55:55.141Z,99.90
2017-05-04T00:58:23.705Z,99.90
2017-05-04T01:00:52.243Z,99.90
2017-05-04T01:03:20.773Z,99.90
2017-05-04T01:05:49.364Z,99.90
2017-05-04T01:08:17.887Z,99.90
2017-05-04T01:10:46.418Z,99.90
2017-05-04T01:13:14.982Z,99.90
2017-05-04T01:15:43.516Z,99.90
2017-05-04T01:18:12.041Z,99.90
2017-05-04T01:20:40.611Z,99.90
2017-05-04T01:23:09.154Z,99.90
2017-05-04T01:25:37.700Z,99.90
2017-05-04T01:28:06.273Z,99.90
2017-05-04T01:30:34.819Z,99.90
2017-05-04T01:33:03.375Z,99.90
2017-05-04T01:35:31.982Z,99.90
2017-05-04T01:38:00.513Z,99.90
2017-05-04T01:40:29.787Z,99.90
2017-05-04T01:42:58.385Z,99.90
2017-05-04T01:45:26.932Z,99.90
2017-05-04T01:47:55.496Z,99.90
2017-05-04T01:50:24.083Z,99.90
2017-05-04T01:52:52.632Z,99.90
2017-05-04T01:55:21.195Z,99.90
2017-05-04T01:57:49.784Z,99.90
2017-05-04T02:00:18.326Z,99.90
2017-05-04T02:02:46.862Z,99.90
2017-05-04T02:05:15.442Z,99.90
2017-05-04T02:07:43.990Z,99.90
2017-05-04T02:10:12.529Z,99.90
2017-05-04T02:12:41.123Z,99.90
2017-05-04T02:15:09.672Z,99.90
2017-05-04T02:17:38.240Z,99.90
2017-05-04T02:20:06.838Z,99.90
2017-05-04T02:22:35.384Z,99.90
2017-05-04T02:25:03.952Z,99.90
2017-05-04T02:27:32.549Z,99.90
2017-05-04T02:30:01.078Z,99.90
2017-05-04T02:32:29.619Z,99.90
2017-05-04T02:34:58.209Z,99.90
2017-05-04T02:37:26.739Z,99.90
2017-05-04T02:39:55.285Z,99.90
2017-05-04T02:42:23.879Z,99.90
2017-05-04T02:44:52.423Z,99.90
2017-05-04T02:47:20.963Z,99.90
2017-05-04T02:49:49.553Z,99.90
2017-05-04T02:52:18.095Z,99.90
2017-05-04T02:54:46.628Z,99.90
2017-05-04T02:57:15.194Z,99.90
2017-05-04T02:59:43.725Z,99.90
2017-05-04T03:02:12.282Z,99.90
2017-05-04T03:04:40.862Z,99.90
2017-05-04T03:07:09.397Z,99.90
2017-05-04T03:09:37.939Z,99.90
2017-05-04T03:12:06.517Z,99.90
2017-05-04T03:14:35.064Z,99.90
2017-05-04T03:17:03.627Z,99.90
2017-05-04T03:19:32.220Z,99.90
2017-05-04T03:22:00.781Z,99.90
2017-05-04T03:24:29.315Z,99.90
2017-05-04T03:26:57.917Z,99.90
2017-05-04T03:29:26.447Z,99.90
2017-05-04T03:31:54.996Z,99.90
2017-05-04T03:34:23.584Z,99.90
2017-05-04T03:36:52.116Z,99.90
2017-05-04T03:39:20.661Z,99.90
2017-05-04T03:41:49.462Z,99.90
2017-05-04T03:44:18.001Z,99.90
2017-05-04T03:46:46.636Z,99.90
2017-05-04T03:49:15.248Z,99.90
2017-05-04T03:51:43.783Z,99.90
2017-05-04T03:54:12.346Z,99.90
2017-05-04T03:56:40.941Z,99.90
2017-05-04T03:59:09.482Z,99.90
2017-05-04T04:01:38.034Z,99.90
2017-05-04T04:04:06.667Z,99.90
2017-05-04T04:06:35.228Z,99.90
2017-05-04T04:09:03.807Z,99.90
2017-05-04T04:11:32.485Z,99.90
2017-05-04T04:14:01.027Z,99.90
2017-05-04T04:16:29.576Z,99.90
2017-05-04T04:18:58.156Z,99.90
2017-05-04T04:21:26.705Z,99.90
2017-05-04T04:23:55.257Z,99.90
2017-05-04T04:26:23.913Z,99.90
2017-05-04T04:28:52.442Z,99.90
2017-05-04T04:31:20.982Z,99.90
2017-05-04T04:33:49.613Z,99.90
2017-05-04T04:36:18.142Z,99.90
2017-05-04T04:38:46.681Z,99.90
2017-05-04T04:41:15.249Z,99.90
2017-05-04T04:43:43.777Z,99.90
2017-05-04T04:46:12.307Z,99.90
2017-05-04T04:48:40.889Z,99.90
2017-05-04T04:51:09.421Z,99.90
2017-05-04T04:53:37.958Z,99.90
2017-05-04T04:56:06.539Z,99.90
2017-05-04T04:58:35.072Z,99.90
2017-05-04T05:01:03.608Z,99.90
2017-05-04T05:03:32.181Z,99.90
2017-05-04T05:06:00.731Z,99.90
2017-05-04T05:08:29.264Z,99.90
2017-05-04T05:10:57.837Z,99.90
2017-05-04T05:13:26.366Z,99.90
2017-05-04T05:15:54.898Z,99.90
2017-05-04T05:18:23.501Z,99.90
2017-05-04T05:20:52.059Z,99.90
2017-05-04T05:23:20.587Z,99.90
2017-05-04T05:25:49.184Z,99.90
2017-05-04T05:28:17.836Z,99.90
2017-05-04T05:30:46.370Z,99.90
2017-05-04T05:33:14.961Z,99.90
2017-05-04T05:35:43.552Z,99.90
2017-05-04T05:38:13.003Z,99.90
2017-05-04T05:40:41.597Z,99.90
2017-05-04T05:43:10.120Z,99.90
2017-05-04T05:45:38.677Z,99.90
2017-05-04T05:48:07.247Z,99.90
2017-05-04T05:50:35.872Z,99.90
2017-05-04T05:53:04.392Z,99.90
2017-05-04T05:55:32.971Z,99.90
2017-05-04T05:58:01.498Z,99.90
2017-05-04T06:00:30.031Z,99.90
2017-05-04T06:02:58.622Z,99.90
2017-05-04T06:05:27.200Z,99.90
2017-05-04T06:07:55.781Z,99.90
2017-05-04T06:10:24.400Z,99.90
2017-05-04T06:12:52.946Z,99.90
2017-05-04T06:15:21.488Z,99.90
2017-05-04T06:17:50.072Z,99.90
2017-05-04T06:20:18.624Z,99.90
2017-05-04T06:22:47.165Z,99.90
2017-05-04T06:25:15.748Z,99.90
2017-05-04T06:27:44.290Z,99.90
2017-05-04T06:30:12.851Z,99.90
2017-05-04T06:32:41.445Z,99.90
2017-05-04T06:35:10.010Z,99.90
2017-05-04T06:37:38.579Z,99.90
2017-05-04T06:40:07.175Z,99.90
2017-05-04T06:42:35.750Z,99.90
2017-05-04T06:45:04.309Z,99.90
2017-05-04T06:47:32.964Z,99.90
2017-05-04T06:50:01.532Z,99.90
2017-05-04T06:52:30.087Z,99.90
2017-05-04T06:54:58.681Z,99.90
2017-05-04T06:57:27.228Z,99.90
2017-05-04T06:59:55.766Z,99.90
2017-05-04T07:02:24.347Z,99.90
2017-05-04T07:04:52.882Z,99.90
2017-05-04T07:07:21.459Z,99.90
2017-05-04T07:09:50.055Z,99.90
2017-05-04T07:12:18.611Z,99.90
2017-05-04T07:14:47.167Z,99.90
2017-05-04T07:17:15.804Z,99.90
2017-05-04T07:19:44.362Z,99.90
2017-05-04T07:22:12.901Z,99.90
2017-05-04T07:24:41.489Z,99.90
2017-05-04T07:27:10.021Z,99.90
2017-05-04T07:29:38.551Z,99.90
2017-05-04T07:32:07.145Z,99.90
2017-05-04T07:34:35.682Z,99.90
2017-05-04T07:37:04.219Z,99.90
2017-05-04T07:39:32.795Z,99.90
2017-05-04T07:42:01.325Z,99.90
2017-05-04T07:44:29.858Z,99.90
2017-05-04T07:46:58.414Z,99.90
2017-05-04T07:49:26.954Z,99.90
2017-05-04T07:51:55.489Z,99.90
2017-05-04T07:54:24.070Z,99.90
2017-05-04T07:56:52.591Z,99.90
2017-05-04T07:59:21.150Z,99.90
2017-05-04T08:01:49.736Z,99.90
2017-05-04T08:04:18.265Z,99.90
2017-05-04T08:06:46.800Z,99.90
2017-05-04T08:09:15.407Z,99.90
2017-05-04T08:11:43.963Z,99.90
2017-05-04T08:14:12.801Z,99.90
2017-05-04T08:16:41.370Z,99.90
2017-05-04T08:19:09.911Z,99.90
2017-05-04T08:21:38.456Z,99.90
2017-05-04T08:24:07.029Z,99.90
2017-05-04T08:26:35.557Z,99.90
2017-05-04T08:29:04.086Z,99.90
2017-05-04T08:31:32.652Z,99.90
2017-05-04T08:34:01.185Z,99.90
2017-05-04T08:36:29.718Z,99.90
2017-05-04T08:38:58.305Z,99.90
2017-05-04T08:41:26.841Z,99.90
2017-05-04T08:43:55.387Z,99.90
2017-05-04T08:46:23.957Z,99.90
2017-05-04T08:48:52.476Z,99.90
2017-05-04T08:51:20.999Z,99.90
2017-05-04T08:53:49.594Z,99.90
2017-05-04T08:56:18.119Z,99.90
2017-05-04T08:58:46.643Z,99.90
2017-05-04T09:01:15.218Z,99.90
2017-05-04T09:03:43.766Z,99.90
2017-05-04T09:06:12.308Z,99.90
2017-05-04T09:08:40.894Z,99.90
2017-05-04T09:11:09.461Z,99.90
2017-05-04T09:13:38.009Z,99.90
2017-05-04T09:16:06.584Z,99.90
2017-05-04T09:18:35.115Z,99.90
2017-05-04T09:21:03.642Z,99.90
2017-05-04T09:23:32.223Z,99.90
2017-05-04T09:26:00.760Z,99.90
2017-05-04T09:28:29.295Z,99.90
2017-05-04T09:30:57.878Z,99.90
2017-05-04T09:33:26.429Z,99.90
2017-05-04T09:35:54.980Z,99.90
2017-05-04T09:38:23.545Z,99.90
2017-05-04T09:40:52.071Z,99.90
2017-05-04T09:43:20.616Z,99.90
2017-05-04T09:45:49.358Z,99.90
2017-05-04T09:48:17.901Z,99.90
2017-05-04T09:50:46.443Z,99.90
2017-05-04T09:53:15.051Z,99.90
2017-05-04T09:55:43.597Z,99.90
2017-05-04T09:58:12.142Z,99.90
2017-05-04T10:00:40.755Z,99.90
2017-05-04T10:03:09.303Z,99.90
2017-05-04T10:05:37.838Z,99.90
2017-05-04T10:08:06.417Z,99.90
2017-05-04T10:10:34.963Z,99.90
2017-05-04T10:13:03.502Z,99.90
2017-05-04T10:15:32.079Z,99.90
2017-05-04T10:18:00.619Z,99.90
2017-05-04T10:20:29.142Z,99.90
2017-05-04T10:22:57.724Z,99.90
2017-05-04T10:25:26.264Z,99.90
2017-05-04T10:27:54.807Z,99.90
2017-05-04T10:30:23.392Z,99.90
2017-05-04T10:32:51.919Z,99.90
2017-05-04T10:35:20.467Z,99.90
2017-05-04T10:37:49.047Z,99.90
2017-05-04T10:40:17.610Z,99.90
2017-05-04T10:42:46.148Z,99.90
2017-05-04T10:45:14.747Z,99.90
2017-05-04T10:47:43.292Z,99.90
2017-05-04T10:50:11.825Z,99.90
2017-05-04T10:52:40.405Z,99.90
2017-05-04T10:55:08.933Z,99.90
2017-05-04T10:57:37.480Z,99.90
2017-05-04T11:00:06.052Z,99.90
2017-05-04T11:02:34.598Z,99.90
2017-05-04T11:05:03.135Z,99.90
2017-05-04T11:07:31.713Z,99.90
2017-05-04T11:10:00.245Z,99.90
2017-05-04T11:12:28.782Z,99.90
2017-05-04T11:14:57.368Z,99.90
2017-05-04T11:17:26.651Z,99.90
2017-05-04T11:19:55.196Z,99.90
2017-05-04T11:22:23.788Z,99.90
2017-05-04T11:24:52.314Z,99.90
2017-05-04T11:27:20.842Z,99.90
2017-05-04T11:29:49.419Z,99.90
2017-05-04T11:32:17.955Z,99.90
2017-05-04T11:34:46.488Z,99.90
2017-05-04T11:37:15.095Z,99.90
2017-05-04T11:39:43.641Z,99.90
2017-05-04T11:42:12.184Z,99.90
2017-05-04T11:44:40.781Z,99.90
2017-05-04T11:47:09.314Z,99.90
2017-05-04T11:49:37.857Z,99.90
2017-05-04T11:52:06.447Z,99.90
2017-05-04T11:54:34.980Z,99.90
2017-05-04T11:57:03.514Z,99.90
2017-05-04T11:59:32.082Z,99.90
2017-05-04T12:02:00.622Z,99.90
2017-05-04T12:04:29.166Z,99.90
2017-05-04T12:06:57.747Z,99.90
2017-05-04T12:09:26.292Z,99.90
2017-05-04T12:11:54.822Z,99.90
2017-05-04T12:14:24.130Z,99.90
2017-05-04T12:16:52.674Z,99.90
2017-05-04T12:19:21.242Z,99.90
2017-05-04T12:21:49.871Z,99.90
2017-05-04T12:24:18.416Z,99.90
2017-05-04T12:26:46.981Z,99.90
2017-05-04T12:29:15.585Z,99.90
2017-05-04T12:31:44.133Z,99.90
2017-05-04T12:34:12.678Z,99.90
2017-05-04T12:36:41.446Z,99.90
2017-05-04T12:39:10.014Z,99.90
2017-05-04T12:41:38.567Z,99.90
2017-05-04T12:44:07.175Z,99.90
2017-05-04T12:46:35.743Z,99.90
2017-05-04T12:49:04.296Z,99.90
2017-05-04T12:51:32.907Z,99.90
2017-05-04T12:54:01.451Z,99.90
2017-05-04T12:56:30.001Z,99.90
2017-05-04T12:58:58.624Z,99.90
2017-05-04T13:01:27.161Z,99.90
2017-05-04T13:03:55.722Z,99.90
2017-05-04T13:06:24.368Z,99.90
2017-05-04T13:08:52.912Z,99.90
2017-05-04T13:11:21.492Z,99.90
2017-05-04T13:13:50.085Z,99.90
2017-05-04T13:16:18.656Z,99.90
2017-05-04T13:18:47.226Z,99.90
2017-05-04T13:21:15.838Z,99.90
2017-05-04T13:23:44.406Z,99.90
2017-05-04T13:26:12.962Z,99.90
2017-05-04T13:28:41.562Z,99.90
2017-05-04T13:31:10.139Z,99.90
2017-05-04T13:33:38.713Z,99.90
2017-05-04T13:36:07.328Z,99.90
2017-05-04T13:38:35.887Z,99.90
2017-05-04T13:41:04.441Z,99.50
2017-05-04T13:43:33.056Z,98.10
2017-05-04T13:46:01.601Z,98.00
2017-05-04T13:48:30.152Z,97.90
2017-05-04T13:50:58.751Z,97.80
2017-05-04T13:53:27.308Z,99.90
2017-05-04T13:55:55.852Z,98.30
2017-05-04T13:58:24.446Z,99.90
2017-05-04T14:00:53.020Z,99.90
2017-05-04T14:03:21.638Z,99.90
2017-05-04T14:05:50.264Z,99.90
2017-05-04T14:08:18.818Z,99.90
2017-05-04T14:10:47.353Z,99.40
2017-05-04T14:13:15.987Z,99.90
2017-05-04T14:15:44.532Z,97.90
2017-05-04T14:18:13.070Z,97.50
2017-05-04T14:20:41.720Z,98.20
2017-05-04T14:23:10.262Z,99.20
2017-05-04T14:25:38.817Z,98.50
2017-05-04T14:28:07.438Z,95.70
2017-05-04T14:30:36.020Z,95.80
2017-05-04T14:33:04.628Z,93.70
2017-05-04T14:35:33.218Z,91.30
2017-05-04T14:38:01.759Z,90.70
2017-05-04T14:40:30.314Z,91.40
2017-05-04T14:42:58.901Z,90.60
2017-05-04T14:45:27.449Z,93.00
2017-05-04T14:47:56.465Z,87.30
2017-05-04T14:50:25.053Z,92.30
2017-05-04T14:52:53.597Z,93.50
2017-05-04T14:55:22.153Z,93.20
2017-05-04T14:57:50.769Z,97.20
2017-05-04T15:00:19.327Z,96.90
2017-05-04T15:02:47.904Z,96.80
2017-05-04T15:05:16.501Z,96.90
2017-05-04T15:07:45.050Z,96.10
2017-05-04T15:10:13.620Z,99.90
2017-05-04T15:12:42.244Z,98.00
2017-05-04T15:15:10.792Z,96.80
2017-05-04T15:17:39.342Z,97.90
2017-05-04T15:20:07.941Z,99.00
2017-05-04T15:22:36.497Z,98.60
2017-05-04T15:25:05.049Z,96.70
2017-05-04T15:27:33.925Z,97.10
2017-05-04T15:30:02.466Z,97.10
2017-05-04T15:32:31.008Z,97.80
2017-05-04T15:34:59.605Z,96.00
2017-05-04T15:37:28.164Z,97.00
2017-05-04T15:39:59.317Z,98.70
2017-05-04T15:42:27.926Z,95.80
2017-05-04T15:44:56.487Z,95.00
2017-05-04T15:47:25.037Z,94.80
2017-05-04T15:49:53.634Z,98.10
2017-05-04T15:52:22.178Z,96.50
2017-05-04T15:54:50.725Z,96.00
2017-05-04T15:57:19.328Z,97.20
2017-05-04T15:59:47.878Z,96.60
2017-05-04T16:02:16.452Z,96.90
2017-05-04T16:04:45.046Z,97.50
2017-05-04T16:07:13.590Z,98.50
2017-05-04T16:09:42.146Z,99.90
2017-05-04T16:12:10.736Z,99.10
2017-05-04T16:14:39.288Z,99.90
2017-05-04T16:17:07.829Z,98.60
2017-05-04T16:19:36.453Z,99.90
2017-05-04T16:22:05.006Z,98.50
2017-05-04T16:24:33.555Z,98.80
2017-05-04T16:27:02.161Z,99.90
2017-05-04T16:29:30.716Z,99.10
2017-05-04T16:31:59.260Z,99.90
2017-05-04T16:34:27.853Z,99.90
2017-05-04T16:36:56.417Z,99.90
2017-05-04T16:39:25.002Z,99.90
2017-05-04T16:41:53.623Z,99.90
2017-05-04T16:44:22.177Z,99.90
2017-05-04T16:46:50.742Z,99.90
2017-05-04T16:49:19.354Z,99.90
2017-05-04T16:51:47.927Z,99.90
2017-05-04T16:54:16.499Z,99.90
2017-05-04T16:56:45.138Z,99.90
2017-05-04T16:59:15.872Z,99.90
2017-05-04T17:01:44.482Z,99.90
2017-05-04T17:04:13.095Z,99.90
2017-05-04T17:06:41.655Z,99.90
2017-05-04T17:09:10.256Z,99.90
2017-05-04T17:11:38.815Z,99.90
2017-05-04T17:14:07.382Z,99.90
2017-05-04T17:16:35.978Z,99.90
2017-05-04T17:19:04.542Z,99.90
2017-05-04T17:21:33.106Z,99.90
2017-05-04T17:24:01.725Z,99.90
2017-05-04T17:26:30.423Z,99.90
2017-05-04T17:28:59.034Z,99.90
2017-05-04T17:31:27.667Z,99.90
2017-05-04T17:33:56.461Z,99.90
2017-05-04T17:36:25.097Z,99.90
2017-05-04T17:38:53.705Z,99.90
2017-05-04T17:41:22.274Z,99.90
2017-05-04T17:43:50.840Z,99.90
2017-05-04T17:46:19.469Z,99.90
2017-05-04T17:48:48.054Z,99.90
2017-05-04T17:51:16.701Z,99.90
2017-05-04T17:53:45.386Z,99.90
2017-05-04T17:56:14.035Z,99.90
2017-05-04T17:58:42.689Z,99.90
2017-05-04T18:01:11.405Z,99.90
2017-05-04T18:03:40.097Z,99.90
2017-05-04T18:06:08.710Z,99.90
2017-05-04T18:08:37.397Z,99.90
2017-05-04T18:11:06.099Z,99.90
2017-05-04T18:13:34.800Z,99.90
2017-05-04T18:16:03.600Z,99.90
2017-05-04T18:18:32.258Z,99.90
2017-05-04T18:21:00.947Z,99.90
2017-05-04T18:23:29.639Z,99.90
2017-05-04T18:25:58.266Z,99.90
2017-05-04T18:28:26.906Z,99.90
2017-05-04T18:30:55.600Z,99.90
2017-05-04T18:33:24.249Z,99.90
2017-05-04T18:35:52.904Z,99.90
2017-05-04T18:38:21.649Z,99.90
2017-05-04T18:40:50.287Z,99.90
2017-05-04T18:43:18.952Z,99.90
2017-05-04T18:45:47.636Z,99.90
2017-05-04T18:48:16.289Z,99.90
2017-05-04T18:50:44.918Z,99.90
2017-05-04T18:53:13.567Z,99.90
2017-05-04T18:55:42.139Z,99.90
2017-05-04T18:58:10.727Z,99.90
2017-05-04T19:00:39.355Z,99.90
2017-05-04T19:03:07.943Z,99.90
2017-05-04T19:05:36.585Z,99.90
2017-05-04T19:08:05.196Z,99.90
2017-05-04T19:10:33.786Z,99.90
2017-05-04T19:13:02.727Z,99.90
2017-05-04T19:15:31.519Z,99.90
2017-05-04T19:18:00.561Z,99.90
2017-05-04T19:20:29.281Z,99.90
2017-05-04T19:22:58.163Z,99.90
2017-05-04T19:25:26.824Z,99.90
2017-05-04T19:27:55.452Z,99.90
2017-05-04T19:30:24.493Z,99.90
2017-05-04T19:32:53.921Z,99.90
2017-05-04T19:35:22.627Z,99.90
2017-05-04T19:37:51.369Z,99.90
2017-05-04T19:40:20.141Z,99.90
2017-05-04T19:42:48.845Z,99.90
2017-05-04T19:45:17.577Z,99.90
2017-05-04T19:47:46.279Z,99.90
2017-05-04T19:50:15.055Z,99.90
2017-05-04T19:52:43.809Z,99.90
2017-05-04T19:55:12.498Z,99.90
2017-05-04T19:57:41.133Z,99.90
2017-05-04T20:00:09.865Z,99.90
2017-05-04T20:02:38.547Z,99.90
2017-05-04T20:05:07.199Z,99.90
2017-05-04T20:07:36.064Z,99.90
2017-05-04T20:10:04.763Z,99.90
2017-05-04T20:12:33.601Z,99.90
2017-05-04T20:15:02.335Z,99.90
2017-05-04T20:17:30.982Z,99.90
2017-05-04T20:19:59.679Z,99.90
2017-05-04T20:22:28.483Z,99.90
2017-05-04T20:24:57.171Z,99.90
2017-05-04T20:27:25.794Z,99.90
2017-05-04T20:29:54.484Z,99.90
2017-05-04T20:32:23.132Z,99.90
2017-05-04T20:34:51.779Z,99.90
2017-05-04T20:37:20.459Z,99.90
2017-05-04T20:39:49.064Z,99.90
2017-05-04T20:42:17.724Z,99.90
2017-05-04T20:44:46.391Z,99.90
2017-05-04T20:47:15.020Z,99.90
2017-05-04T20:49:43.681Z,99.90
2017-05-04T20:52:12.382Z,99.90
2017-05-04T20:54:40.967Z,99.90
2017-05-04T20:57:09.537Z,99.90
2017-05-04T20:59:38.164Z,99.90
2017-05-04T21:02:06.766Z,99.90
2017-05-04T21:04:35.367Z,99.90
2017-05-04T21:07:04.011Z,99.90
2017-05-04T21:09:32.703Z,99.90
2017-05-04T21:12:01.373Z,99.90
2017-05-04T21:14:30.130Z,99.90
2017-05-04T21:16:58.797Z,99.90
2017-05-04T21:19:27.472Z,99.90
2017-05-04T21:21:56.243Z,99.90
2017-05-04T21:24:24.947Z,99.90
2017-05-04T21:26:54.042Z,99.90
2017-05-04T21:29:22.957Z,99.90
2017-05-04T21:31:51.607Z,99.90
2017-05-04T21:34:20.274Z,99.90
2017-05-04T21:36:48.952Z,99.90
2017-05-04T21:39:17.621Z,99.90
2017-05-04T21:41:46.301Z,99.90
2017-05-04T21:44:15.016Z,99.90
2017-05-04T21:46:43.735Z,99.90
2017-05-04T21:49:12.427Z,99.90
2017-05-04T21:51:41.605Z,99.90
2017-05-04T21:54:10.249Z,99.90
2017-05-04T21:56:39.105Z,99.90
2017-05-04T21:59:07.917Z,99.90
2017-05-04T22:01:36.581Z,99.90
2017-05-04T22:04:05.193Z,99.90
2017-05-04T22:06:33.940Z,99.90
2017-05-04T22:09:02.642Z,99.90
2017-05-04T22:11:31.452Z,99.90
2017-05-04T22:14:00.215Z,99.90
2017-05-04T22:16:28.915Z,99.90
2017-05-04T22:18:57.566Z,99.90
2017-05-04T22:21:26.251Z,99.90
2017-05-04T22:23:54.905Z,99.90
2017-05-04T22:26:23.563Z,99.90
2017-05-04T22:28:52.240Z,99.90
2017-05-04T22:31:20.899Z,99.90
2017-05-04T22:33:49.635Z,99.90
2017-05-04T22:36:18.357Z,99.90
2017-05-04T22:38:47.083Z,99.90
2017-05-04T22:41:15.656Z,99.90
2017-05-04T22:43:44.360Z,99.90
2017-05-04T22:46:12.924Z,99.90
2017-05-04T22:48:41.507Z,99.90
2017-05-04T22:51:10.135Z,99.90
2017-05-04T22:53:38.708Z,99.90
2017-05-04T22:56:07.295Z,99.90
2017-05-04T22:58:35.934Z,99.90
2017-05-04T23:01:04.543Z,99.90
2017-05-04T23:03:33.160Z,99.90
2017-05-04T23:06:01.768Z,99.90
2017-05-04T23:08:30.347Z,99.90
2017-05-04T23:10:58.933Z,99.90
2017-05-04T23:13:27.593Z,99.90
2017-05-04T23:15:56.170Z,99.90
2017-05-04T23:18:24.750Z,99.90
2017-05-04T23:20:53.382Z,99.90
2017-05-04T23:23:21.971Z,99.90
2017-05-04T23:25:50.578Z,99.90
2017-05-04T23:28:19.232Z,99.90
2017-05-04T23:30:47.837Z,99.90
2017-05-04T23:33:16.409Z,99.90
2017-05-04T23:35:45.046Z,99.90
2017-05-04T23:38:13.616Z,99.90
2017-05-04T23:40:42.198Z,99.90
2017-05-04T23:43:10.822Z,99.90
2017-05-04T23:45:39.394Z,99.90
2017-05-04T23:48:07.980Z,99.90
2017-05-04T23:50:36.611Z,99.90
2017-05-04T23:53:05.192Z,99.90
2017-05-04T23:55:33.820Z,99.90
2017-05-04T23:58:02.467Z,99.90
